Time;durP1;ratioP1;P1;durP2;ratioP2;P2;SDS_P1;SDS_P2;PMS_P1;PMS_P2;Temp;Humidity;BMP_temperature;BMP_pressure;BME280_temperature;BME280_humidity;BME280_pressure;Samples;Min_cycle;Max_cycle;Signal;HPM_P1;HPM_P2
2021/12/28 10:51:13;;;;;;;0.37;0.20;;;6.50;73.30;;;;;;2550129;52;22049;-76
2021/12/28 10:54:12;;;;;;;0.85;0.30;;;15.70;77.60;;;;;;2323231;53;20949;-76
2021/12/28 10:56:54;;;;;;;0.43;0.30;;;15.70;76.80;;;;;;2320999;53;20960;-76
2021/12/28 10:59:21;;;;;;;0.52;0.20;;;15.70;77.10;;;;;;2345007;53;21514;-76
2021/12/28 11:01:48;;;;;;;0.47;0.20;;;15.70;77.70;;;;;;2319384;54;20965;-76
2021/12/28 11:04:15;;;;;;;0.40;0.30;;;15.70;77.70;;;;;;2332588;53;20990;-76
2021/12/28 11:06:46;;;;;;;0.82;0.30;;;15.70;77.90;;;;;;2332037;52;22076;-76
2021/12/28 11:09:15;;;;;;;0.50;0.20;;;15.80;77.40;;;;;;2322588;53;20990;-77
2021/12/28 11:11:42;;;;;;;0.50;0.28;;;15.80;77.30;;;;;;2290536;55;20956;-77
2021/12/28 11:14:15;;;;;;;0.60;0.30;;;15.90;77.50;;;;;;2323247;53;20952;-78
2021/12/28 11:16:42;;;;;;;0.88;0.30;;;15.90;77.10;;;;;;2322914;54;21016;-76
2021/12/28 11:19:09;;;;;;;1.23;0.45;;;15.90;77.30;;;;;;2337855;53;21108;-76
2021/12/28 11:21:37;;;;;;;0.80;0.35;;;15.90;77.10;;;;;;2467788;53;21045;-76
2021/12/28 11:24:10;;;;;;;0.77;0.30;;;15.90;77.00;;;;;;2357786;53;21464;-76
2021/12/28 11:30:14;;;;;;;1.35;0.40;;;16.00;76.00;;;;;;2383057;53;21046;-76
2021/12/28 11:32:40;;;;;;;3.92;1.87;;;16.00;76.50;;;;;;2346718;54;20990;-76
2021/12/28 11:35:07;;;;;;;4.25;1.75;;;16.00;76.70;;;;;;2535862;53;21502;-76
2021/12/28 11:37:34;;;;;;;3.12;1.30;;;16.00;76.80;;;;;;2342703;53;21507;-76
2021/12/28 11:40:02;;;;;;;3.25;1.15;;;16.10;77.00;;;;;;2321357;53;21484;-76
2021/12/28 11:42:29;;;;;;;1.77;0.70;;;16.10;76.90;;;;;;2315132;54;20949;-76
2021/12/28 11:44:55;;;;;;;1.42;0.47;;;16.10;76.80;;;;;;2361077;53;21062;-76
2021/12/28 11:47:21;;;;;;;0.85;0.40;;;16.10;76.90;;;;;;2343649;53;21596;-76
2021/12/28 11:49:49;;;;;;;1.02;0.45;;;16.10;76.90;;;;;;2298504;53;20988;-76
2021/12/28 11:52:17;;;;;;;1.12;0.55;;;16.20;76.90;;;;;;2491618;53;22066;-76
2021/12/28 11:54:45;;;;;;;1.25;0.45;;;16.20;76.90;;;;;;2405334;54;21481;-76
2021/12/28 11:57:19;;;;;;;1.30;0.50;;;16.20;76.90;;;;;;2321621;54;21104;-76
2021/12/28 12:00:05;;;;;;;2.08;0.70;;;16.20;76.60;;;;;;2288115;55;21328;-76
2021/12/28 12:02:47;;;;;;;2.17;0.55;;;16.20;76.30;;;;;;2339934;53;21014;-76
2021/12/28 12:05:26;;;;;;;1.15;0.60;;;16.20;76.10;;;;;;2291201;54;20961;-76
2021/12/28 12:08:14;;;;;;;1.30;0.40;;;16.30;76.50;;;;;;2293776;54;21021;-76
2021/12/28 12:10:41;;;;;;;0.80;0.40;;;16.30;75.70;;;;;;2289236;54;20973;-76
2021/12/28 12:13:18;;;;;;;2.15;0.40;;;16.30;76.60;;;;;;2321930;54;21063;-76
2021/12/28 12:15:48;;;;;;;1.50;0.50;;;16.30;75.90;;;;;;2566544;53;21176;-76
2021/12/28 12:18:15;;;;;;;1.60;0.52;;;16.40;76.60;;;;;;2329921;54;21009;-77
2021/12/28 12:20:49;;;;;;;1.40;0.50;;;16.40;76.60;;;;;;2341186;53;20914;-76
2021/12/28 12:23:18;;;;;;;1.35;0.50;;;16.40;76.40;;;;;;2431632;52;20973;-76
2021/12/28 12:25:51;;;;;;;1.60;0.60;;;16.40;76.50;;;;;;2353794;53;20986;-77
2021/12/28 12:28:49;;;;;;;1.92;0.70;;;16.40;76.10;;;;;;2355846;54;20985;-76
2021/12/28 12:31:27;;;;;;;2.45;0.70;;;16.40;74.80;;;;;;2331831;54;20976;-76
2021/12/28 12:33:57;;;;;;;1.33;0.50;;;16.40;75.40;;;;;;2372088;52;20982;-77
2021/12/28 12:36:57;;;;;;;2.15;0.50;;;16.40;75.90;;;;;;2332626;54;21051;-76
2021/12/28 12:39:24;;;;;;;1.00;0.40;;;16.40;74.60;;;;;;2336223;54;20921;-76
2021/12/28 12:41:53;;;;;;;1.65;0.37;;;16.40;75.60;;;;;;2351651;54;21114;-76
2021/12/28 12:44:21;;;;;;;1.08;0.40;;;16.40;75.20;;;;;;2354385;54;20961;-76
2021/12/28 12:46:47;;;;;;;1.27;0.50;;;16.40;74.70;;;;;;2326909;54;20967;-75
2021/12/28 12:49:20;;;;;;;1.40;0.45;;;16.30;74.20;;;;;;2342178;54;21538;-76
2021/12/28 12:51:49;;;;;;;1.60;0.50;;;16.20;73.90;;;;;;2302972;54;21490;-76
2021/12/28 12:54:22;;;;;;;0.88;0.40;;;16.10;74.00;;;;;;2344815;53;20956;-76
2021/12/28 12:57:06;;;;;;;1.02;0.40;;;16.00;74.00;;;;;;2304216;55;21552;-76
2021/12/28 13:00:33;;;;;;;1.42;0.73;;;16.00;73.90;;;;;;2292075;54;21459;-76
2021/12/28 13:03:00;;;;;;;1.00;0.40;;;15.90;74.00;;;;;;2436592;52;21587;-75
2021/12/28 13:05:28;;;;;;;1.75;0.60;;;15.90;74.70;;;;;;2333054;54;20928;-76
2021/12/28 13:07:54;;;;;;;1.42;0.50;;;15.80;74.70;;;;;;2364595;53;21810;-75
2021/12/28 13:10:27;;;;;;;0.93;0.30;;;15.80;75.00;;;;;;2333210;54;20940;-76
2021/12/28 13:12:55;;;;;;;1.12;0.40;;;15.80;74.90;;;;;;2333292;54;20941;-76
2021/12/28 13:15:29;;;;;;;0.82;0.40;;;15.80;75.40;;;;;;2334904;54;20921;-77
2021/12/28 13:17:55;;;;;;;1.12;0.40;;;15.70;75.30;;;;;;2333246;54;21438;-76
2021/12/28 13:20:32;;;;;;;0.80;0.30;;;15.70;75.60;;;;;;2333291;54;20917;-77
2021/12/28 13:23:04;;;;;;;0.57;0.25;;;15.70;75.70;;;;;;2408192;53;20985;-76
2021/12/28 13:25:32;;;;;;;;;;;15.80;75.70;;;;;;2336424;54;21465;-77
2021/12/28 13:27:59;;;;;;;0.98;0.40;;;15.80;74.90;;;;;;2336363;54;20126;-77
2021/12/28 13:30:28;;;;;;;0.77;0.30;;;15.80;75.70;;;;;;2333109;54;20905;-76
2021/12/28 13:33:07;;;;;;;1.12;0.40;;;15.80;75.50;;;;;;2333843;54;21064;-77
2021/12/28 13:35:36;;;;;;;0.55;0.20;;;15.80;75.80;;;;;;2332816;54;20949;-77
2021/12/28 13:38:13;;;;;;;0.57;0.30;;;15.90;76.00;;;;;;2338183;53;20984;-76
2021/12/28 13:40:43;;;;;;;0.80;0.35;;;15.90;75.60;;;;;;2480514;52;20981;-76
2021/12/28 13:43:21;;;;;;;0.62;0.30;;;15.90;75.70;;;;;;2334522;54;21068;-77
2021/12/28 13:45:58;;;;;;;0.68;0.30;;;15.90;75.40;;;;;;2310734;55;20949;-76
2021/12/28 13:48:30;;;;;;;1.58;0.40;;;15.90;75.20;;;;;;2333068;54;21123;-77
2021/12/28 13:51:00;;;;;;;0.70;0.40;;;15.90;75.10;;;;;;2333365;54;21051;-76
2021/12/28 13:53:29;;;;;;;0.45;0.30;;;15.80;74.40;;;;;;2332931;54;21454;-76
2021/12/28 13:56:09;;;;;;;0.98;0.25;;;15.80;74.60;;;;;;2336951;54;20937;-76
2021/12/28 13:58:40;;;;;;;0.55;0.25;;;15.70;74.50;;;;;;2325422;53;21171;-76
2021/12/28 14:01:29;;;;;;;0.75;0.40;;;15.60;74.50;;;;;;2300249;54;22015;-76
2021/12/28 14:04:04;;;;;;;1.25;0.68;;;15.60;74.50;;;;;;2323160;54;21078;-76
2021/12/28 14:06:33;;;;;;;0.85;0.40;;;15.50;74.70;;;;;;2328683;53;20957;-76
2021/12/28 14:09:04;;;;;;;1.73;0.50;;;15.40;74.80;;;;;;2375458;52;21363;-76
2021/12/28 14:11:32;;;;;;;0.68;0.40;;;15.40;75.00;;;;;;2347970;53;20945;-76
2021/12/28 14:13:58;;;;;;;1.00;0.40;;;15.30;75.00;;;;;;2402020;53;21427;-77
2021/12/28 14:16:25;;;;;;;1.35;0.50;;;15.30;75.20;;;;;;2334296;54;21055;-76
2021/12/28 14:18:52;;;;;;;2.78;0.60;;;15.20;75.20;;;;;;2334430;54;20926;-77
2021/12/28 14:21:27;;;;;;;2.08;0.52;;;15.20;75.20;;;;;;2346080;53;20952;-78
2021/12/28 14:24:27;;;;;;;1.48;0.35;;;15.20;75.40;;;;;;2337947;53;21099;-77
2021/12/28 14:26:53;;;;;;;1.95;0.55;;;15.10;75.20;;;;;;2316335;53;20931;-77
2021/12/28 14:29:24;;;;;;;0.85;0.40;;;15.00;75.50;;;;;;2332143;53;20915;-77
2021/12/28 14:31:57;;;;;;;1.40;0.45;;;15.00;75.40;;;;;;2370760;53;20914;-77
2021/12/28 14:34:43;;;;;;;1.25;0.50;;;15.00;75.30;;;;;;2391053;53;20929;-76
2021/12/28 14:37:14;;;;;;;2.78;0.60;;;14.90;75.10;;;;;;2329860;54;21916;-76
2021/12/28 14:39:52;;;;;;;1.83;0.60;;;14.90;75.20;;;;;;2333094;55;20959;-76
2021/12/28 14:42:28;;;;;;;1.30;0.50;;;14.90;75.30;;;;;;2335144;53;21439;-76
2021/12/28 14:45:11;;;;;;;1.10;0.40;;;14.80;75.40;;;;;;2297507;54;21009;-76
2021/12/28 14:47:38;;;;;;;2.15;0.70;;;14.80;75.50;;;;;;2381918;53;20971;-78
2021/12/28 14:50:18;;;;;;;1.52;0.70;;;14.80;75.80;;;;;;2362840;52;21019;-77
2021/12/28 14:52:49;;;;;;;1.85;0.70;;;14.70;75.80;;;;;;2385207;52;20944;-77
2021/12/28 14:55:30;;;;;;;2.17;0.88;;;14.70;75.90;;;;;;2337332;53;21355;-77
2021/12/28 14:58:04;;;;;;;2.62;0.70;;;14.70;76.00;;;;;;2339356;53;20955;-77
2021/12/28 15:00:49;;;;;;;;;;;14.70;75.80;;;;;;2331521;54;20943;-77
2021/12/28 15:03:25;;;;;;;1.48;0.60;;;14.70;75.20;;;;;;2425522;52;20077;-77
2021/12/28 15:05:57;;;;;;;1.55;0.70;;;14.70;75.10;;;;;;2348979;53;20971;-77
2021/12/28 15:08:25;;;;;;;1.77;0.70;;;14.60;75.20;;;;;;2355033;53;20932;-76
2021/12/28 15:10:53;;;;;;;2.05;0.60;;;14.60;75.10;;;;;;2363091;54;20951;-76
2021/12/28 15:13:24;;;;;;;3.28;0.60;;;14.60;74.90;;;;;;2362090;54;20963;-76
2021/12/28 15:15:50;;;;;;;2.78;0.65;;;14.50;74.50;;;;;;2342537;53;20984;-77
2021/12/28 15:18:19;;;;;;;2.95;0.65;;;14.50;74.70;;;;;;2360764;53;21011;-77
2021/12/28 15:20:45;;;;;;;2.45;0.60;;;14.50;74.50;;;;;;2343832;53;20956;-76
2021/12/28 15:23:11;;;;;;;3.67;0.73;;;14.40;74.60;;;;;;2360274;52;21677;-76
2021/12/28 15:25:38;;;;;;;3.15;0.80;;;14.40;74.90;;;;;;2436290;52;20943;-77
2021/12/28 15:28:05;;;;;;;3.62;0.95;;;14.40;74.80;;;;;;2398571;52;20960;-78
2021/12/28 15:30:35;;;;;;;3.50;0.80;;;14.40;74.90;;;;;;2350088;53;21819;-78
2021/12/28 15:33:03;;;;;;;3.95;0.90;;;14.40;74.40;;;;;;2553690;53;21335;-76
2021/12/28 15:35:33;;;;;;;3.55;0.88;;;14.40;73.70;;;;;;2314455;54;20927;-76
2021/12/28 15:38:04;;;;;;;2.42;0.93;;;14.40;74.50;;;;;;2598461;52;20948;-76
2021/12/28 15:40:41;;;;;;;3.42;0.75;;;14.40;74.70;;;;;;2439016;53;20995;-77
2021/12/28 15:43:08;;;;;;;4.12;0.90;;;14.40;74.10;;;;;;2352087;53;20929;-76
2021/12/28 15:45:35;;;;;;;5.90;1.20;;;14.40;74.70;;;;;;2335152;53;21016;-77
2021/12/28 15:48:01;;;;;;;2.22;0.77;;;14.40;74.50;;;;;;2336273;53;20961;-77
2021/12/28 15:54:08;;;;;;;3.85;1.00;;;14.40;73.80;;;;;;2333922;54;21481;-77
2021/12/28 15:56:36;;;;;;;3.10;0.82;;;14.40;74.30;;;;;;2429755;52;21481;-76
2021/12/28 15:59:04;;;;;;;5.35;1.83;;;14.40;74.90;;;;;;2578893;52;20917;-76
2021/12/28 16:01:30;;;;;;;8.25;1.77;;;14.40;74.00;;;;;;2339266;53;20995;-76
2021/12/28 16:03:57;;;;;;;5.10;0.82;;;14.30;73.30;;;;;;2345161;53;20948;-77
2021/12/28 16:06:23;;;;;;;6.70;0.70;;;14.30;71.20;;;;;;2350542;53;20912;-79
2021/12/28 16:08:49;;;;;;;2.62;0.50;;;14.20;69.00;;;;;;2469919;52;21039;-77
2021/12/28 16:11:18;;;;;;;2.35;0.32;;;13.90;67.50;;;;;;2330500;54;21421;-79
2021/12/28 16:13:45;;;;;;;6.95;0.70;;;13.70;67.00;;;;;;2454602;52;21904;-78
2021/12/28 16:16:11;;;;;;;3.05;0.70;;;13.50;67.00;;;;;;2464104;53;21104;-78
2021/12/28 16:18:38;;;;;;;1.98;0.30;;;13.20;67.40;;;;;;2338443;53;20976;-78
2021/12/28 16:21:04;;;;;;;2.03;0.50;;;13.00;68.00;;;;;;2373010;52;20977;-77
2021/12/28 16:23:33;;;;;;;2.03;0.70;;;12.80;68.60;;;;;;2332086;53;20933;-77
2021/12/28 16:26:04;;;;;;;2.92;0.50;;;12.50;69.10;;;;;;2405155;53;20942;-78
2021/12/28 16:28:31;;;;;;;1.67;0.70;;;12.40;69.60;;;;;;2359887;53;21000;-78
2021/12/28 16:30:57;;;;;;;2.47;0.70;;;12.30;70.00;;;;;;2359895;53;21093;-77
2021/12/28 16:33:23;;;;;;;2.33;0.60;;;12.20;70.40;;;;;;2524985;52;20978;-78
2021/12/28 16:35:50;;;;;;;3.12;0.80;;;12.10;70.70;;;;;;2385481;52;21023;-79
2021/12/28 16:38:16;;;;;;;6.90;2.25;;;12.00;71.00;;;;;;2443855;52;20928;-78
2021/12/28 16:40:42;;;;;;;4.78;1.87;;;11.90;71.40;;;;;;2452596;52;21065;-78
2021/12/28 16:43:08;;;;;;;5.20;1.40;;;11.80;71.70;;;;;;2425922;52;21415;-78
2021/12/28 16:45:35;;;;;;;4.53;1.40;;;11.80;72.10;;;;;;2360205;53;21005;-78
2021/12/28 16:48:02;;;;;;;4.30;1.60;;;11.70;72.40;;;;;;2611744;52;22831;-79
2021/12/28 16:50:29;;;;;;;3.37;1.30;;;11.70;72.70;;;;;;2427829;52;21496;-80
2021/12/28 16:52:55;;;;;;;5.53;1.30;;;11.60;73.00;;;;;;2536028;52;21468;-79
2021/12/28 16:55:22;;;;;;;3.83;1.70;;;11.60;73.30;;;;;;2359889;53;21668;-77
2021/12/28 16:57:50;;;;;;;4.05;1.98;;;11.60;73.60;;;;;;2357930;53;20972;-78
2021/12/28 17:00:18;;;;;;;6.03;2.60;;;11.60;74.20;;;;;;2344142;53;21284;-78
2021/12/28 17:02:45;;;;;;;5.90;2.60;;;11.50;74.00;;;;;;2359643;53;20974;-79
2021/12/28 17:05:11;;;;;;;5.15;2.17;;;11.60;74.30;;;;;;2360258;53;21716;-78
2021/12/28 17:07:37;;;;;;;6.32;2.00;;;11.50;74.30;;;;;;2359991;53;20938;-78
2021/12/28 17:10:04;;;;;;;5.68;1.62;;;11.50;74.60;;;;;;2360361;53;20954;-78
2021/12/28 17:12:30;;;;;;;5.18;1.25;;;11.60;75.00;;;;;;2363085;52;20964;-79
2021/12/28 17:14:56;;;;;;;5.22;1.37;;;11.60;75.30;;;;;;2337185;53;20996;-79
2021/12/28 17:17:23;;;;;;;5.97;1.33;;;11.60;75.60;;;;;;2335243;53;20989;-80
2021/12/28 17:19:49;;;;;;;4.85;1.55;;;11.60;75.90;;;;;;2367308;52;20950;-80
2021/12/28 17:22:15;;;;;;;5.80;1.48;;;11.70;76.20;;;;;;2498743;52;20946;-80
2021/12/28 17:24:44;;;;;;;7.75;1.30;;;11.70;76.40;;;;;;2361091;53;20950;-80
2021/12/28 17:27:11;;;;;;;4.87;2.17;;;11.80;76.60;;;;;;2403567;52;21023;-78
2021/12/28 17:29:37;;;;;;;10.30;2.10;;;11.80;76.70;;;;;;2332090;53;20997;-78
2021/12/28 17:32:04;;;;;;;6.15;1.90;;;11.80;76.80;;;;;;2358121;53;20991;-78
2021/12/28 17:34:30;;;;;;;5.20;1.67;;;11.90;76.80;;;;;;2330228;53;21037;-78
2021/12/28 17:36:56;;;;;;;8.63;1.80;;;11.90;76.90;;;;;;2361069;53;21022;-81
2021/12/28 17:39:23;;;;;;;5.45;1.20;;;12.00;77.00;;;;;;2379262;52;21412;-79
2021/12/28 17:41:49;;;;;;;4.50;1.58;;;12.10;77.00;;;;;;2359197;53;20934;-79
2021/12/28 17:44:15;;;;;;;3.85;1.20;;;12.10;77.00;;;;;;2346605;53;22025;-78
2021/12/28 17:46:42;;;;;;;5.15;1.42;;;12.10;76.90;;;;;;2415458;52;21909;-78
2021/12/28 17:49:08;;;;;;;3.60;1.20;;;12.20;77.40;;;;;;2361451;53;21712;-77
2021/12/28 17:51:36;;;;;;;6.35;1.60;;;12.20;76.80;;;;;;2429456;52;20966;-81
2021/12/28 17:54:04;;;;;;;7.18;1.17;;;12.30;76.40;;;;;;2381508;52;20962;-78
2021/12/28 17:56:30;;;;;;;4.12;1.40;;;12.30;76.00;;;;;;2360709;53;20950;-78
2021/12/28 17:58:57;;;;;;;4.28;1.25;;;12.30;75.80;;;;;;2360499;53;21483;-79
2021/12/28 18:01:23;;;;;;;7.32;1.90;;;12.30;75.60;;;;;;2361330;53;21345;-78
2021/12/28 18:03:51;;;;;;;4.60;1.33;;;12.30;75.50;;;;;;2405504;52;20923;-78
2021/12/28 18:06:18;;;;;;;6.28;1.50;;;12.30;75.40;;;;;;2393118;53;21076;-80
2021/12/28 18:08:44;;;;;;;3.12;1.10;;;12.30;75.40;;;;;;2416245;52;20913;-77
2021/12/28 18:11:10;;;;;;;5.82;1.40;;;12.30;75.40;;;;;;2361363;53;21081;-78
2021/12/28 18:13:36;;;;;;;6.65;1.98;;;12.30;75.10;;;;;;2361052;53;20950;-77
2021/12/28 18:16:03;;;;;;;7.95;2.87;;;12.20;75.00;;;;;;2361649;53;21045;-77
2021/12/28 18:18:29;;;;;;;5.32;1.87;;;12.20;75.00;;;;;;2388876;52;21386;-78
2021/12/28 18:20:55;;;;;;;5.35;1.40;;;12.20;75.00;;;;;;2346845;53;20944;-76
2021/12/28 18:23:21;;;;;;;5.97;2.10;;;12.20;75.00;;;;;;2355887;53;20982;-76
2021/12/28 18:25:48;;;;;;;4.68;1.67;;;12.10;75.10;;;;;;2449014;52;21419;-78
2021/12/28 18:28:15;;;;;;;7.72;1.92;;;12.20;75.40;;;;;;2343246;53;20969;-77
2021/12/28 18:30:41;;;;;;;10.90;2.00;;;12.10;75.50;;;;;;2351791;53;21026;-76
2021/12/28 18:33:14;;;;;;;10.77;3.85;;;12.20;76.00;;;;;;2407644;52;21926;-76
2021/12/28 18:35:46;;;;;;;9.75;2.80;;;12.10;76.10;;;;;;2347311;53;20966;-76
2021/12/28 18:38:14;;;;;;;7.70;2.30;;;12.20;76.40;;;;;;2362025;52;20961;-76
2021/12/28 18:40:41;;;;;;;8.27;2.00;;;12.20;76.40;;;;;;2360541;53;21010;-75
2021/12/28 18:43:08;;;;;;;7.22;1.50;;;12.20;76.50;;;;;;2368672;52;20955;-77
2021/12/28 18:45:35;;;;;;;9.40;2.17;;;12.20;76.50;;;;;;2336671;53;21467;-78
2021/12/28 18:48:03;;;;;;;7.07;1.40;;;12.30;76.60;;;;;;2360801;53;21475;-75
2021/12/28 18:50:29;;;;;;;7.07;1.50;;;12.20;77.20;;;;;;2360994;53;21464;-77
2021/12/28 18:52:56;;;;;;;8.88;1.60;;;12.20;76.60;;;;;;2397869;52;20966;-78
2021/12/28 18:55:22;;;;;;;7.75;1.55;;;12.20;77.30;;;;;;2331166;53;20935;-76
2021/12/28 18:57:49;;;;;;;5.18;1.35;;;12.30;77.50;;;;;;2362585;53;20938;-78
2021/12/28 19:00:18;;;;;;;6.05;1.20;;;12.30;76.80;;;;;;2353159;52;20943;-76
2021/12/28 19:02:51;;;;;;;5.80;1.70;;;12.30;76.80;;;;;;2336963;54;21004;-78
2021/12/28 19:05:18;;;;;;;5.72;1.50;;;12.30;76.70;;;;;;2331537;54;21047;-80
2021/12/28 19:07:45;;;;;;;8.98;1.50;;;12.30;76.80;;;;;;2333558;53;20956;-77
2021/12/28 19:10:13;;;;;;;8.02;1.37;;;12.30;76.80;;;;;;2355509;53;22037;-80
2021/12/28 19:12:39;;;;;;;6.18;1.65;;;12.30;76.80;;;;;;2363488;53;20991;-78
2021/12/28 19:15:06;;;;;;;8.70;1.50;;;12.40;77.20;;;;;;2364184;53;21005;-79
2021/12/28 19:17:33;;;;;;;7.50;1.65;;;12.30;76.80;;;;;;2395352;52;21023;-77
2021/12/28 19:19:59;;;;;;;6.65;2.05;;;12.40;76.80;;;;;;2350373;53;20923;-76
2021/12/28 19:22:25;;;;;;;9.93;1.90;;;12.40;76.80;;;;;;2422318;52;21418;-77
2021/12/28 19:24:52;;;;;;;4.18;1.10;;;12.40;76.70;;;;;;2333367;53;20984;-75
2021/12/28 19:27:18;;;;;;;6.43;2.25;;;12.40;76.60;;;;;;2334679;53;21013;-78
2021/12/28 19:29:45;;;;;;;8.40;1.62;;;12.40;76.50;;;;;;2546726;52;21059;-77
2021/12/28 19:32:11;;;;;;;7.68;1.77;;;12.40;76.30;;;;;;2338860;53;21673;-77
2021/12/28 19:34:38;;;;;;;8.20;1.90;;;12.40;76.30;;;;;;2388314;52;20946;-76
2021/12/28 19:37:05;;;;;;;7.78;1.85;;;12.40;76.20;;;;;;2521344;52;20990;-77
2021/12/28 19:39:32;;;;;;;6.12;1.50;;;12.40;76.40;;;;;;2442114;53;21827;-79
2021/12/28 19:41:58;;;;;;;6.43;1.62;;;12.40;76.30;;;;;;2348869;53;21432;-76
2021/12/28 19:44:26;;;;;;;6.90;1.67;;;12.50;76.50;;;;;;2348214;53;20996;-78
2021/12/28 19:46:52;;;;;;;9.32;2.15;;;12.40;76.40;;;;;;2356143;53;20993;-78
2021/12/28 19:49:21;;;;;;;6.20;1.95;;;12.50;76.40;;;;;;2361611;53;21076;-78
2021/12/28 19:51:56;;;;;;;5.03;1.48;;;12.40;76.30;;;;;;2377937;52;20947;-79
2021/12/28 19:54:24;;;;;;;8.95;2.22;;;12.40;76.10;;;;;;2361430;53;20933;-80
2021/12/28 19:56:52;;;;;;;6.80;2.17;;;12.50;76.20;;;;;;2336660;53;21432;-76
2021/12/28 19:59:18;;;;;;;13.43;1.73;;;12.40;76.10;;;;;;2348638;53;20997;-77
2021/12/28 20:01:45;;;;;;;4.57;1.30;;;12.40;75.90;;;;;;2340802;53;21277;-75
2021/12/28 20:04:11;;;;;;;6.32;1.40;;;12.40;75.60;;;;;;2443807;52;21509;-77
2021/12/28 20:06:37;;;;;;;4.57;1.77;;;12.40;75.40;;;;;;2368001;52;21447;-77
2021/12/28 20:09:04;;;;;;;5.43;1.42;;;12.30;75.30;;;;;;2361656;53;20934;-78
2021/12/28 20:11:32;;;;;;;6.10;2.00;;;12.30;75.40;;;;;;2329459;54;21565;-78
2021/12/28 20:14:02;;;;;;;4.55;1.55;;;12.30;75.40;;;;;;2354990;53;21499;-77
2021/12/28 20:16:28;;;;;;;6.53;1.60;;;12.30;75.50;;;;;;2338754;53;20959;-77
2021/12/28 20:18:55;;;;;;;11.02;1.83;;;12.20;75.50;;;;;;2335788;54;22927;-77
2021/12/28 20:21:23;;;;;;;8.00;1.95;;;12.20;75.40;;;;;;2495238;53;20942;-77
2021/12/28 20:23:50;;;;;;;7.97;1.75;;;12.20;75.40;;;;;;2345860;53;20975;-78
2021/12/28 20:26:17;;;;;;;9.55;2.00;;;12.20;75.60;;;;;;2408873;52;21581;-76
2021/12/28 20:28:45;;;;;;;7.90;1.40;;;12.20;75.80;;;;;;2361416;53;21537;-78
2021/12/28 20:31:11;;;;;;;8.88;1.52;;;12.20;75.80;;;;;;2361578;53;21053;-78
2021/12/28 20:33:38;;;;;;;6.43;1.33;;;12.20;75.70;;;;;;2492114;52;20971;-76
2021/12/28 20:36:04;;;;;;;8.50;1.50;;;12.20;75.90;;;;;;2391523;53;21444;-77
2021/12/28 20:38:31;;;;;;;7.93;1.62;;;12.20;75.90;;;;;;2363598;52;21344;-78
2021/12/28 20:41:01;;;;;;;5.70;1.50;;;12.20;75.80;;;;;;2369818;52;22071;-77
2021/12/28 20:43:28;;;;;;;6.10;1.42;;;12.30;76.00;;;;;;2392717;52;21982;-77
2021/12/28 20:45:55;;;;;;;9.57;1.67;;;12.30;75.80;;;;;;2428481;52;20958;-77
2021/12/28 20:48:22;;;;;;;5.35;1.45;;;12.30;76.00;;;;;;2360915;53;20946;-78
2021/12/28 20:50:48;;;;;;;8.60;1.70;;;12.30;76.00;;;;;;2370573;52;20947;-78
2021/12/28 20:53:14;;;;;;;7.47;1.70;;;12.30;75.90;;;;;;2360974;53;21277;-77
2021/12/28 20:59:08;;;;;;;10.70;2.12;;;12.30;75.40;;;;;;2341291;53;21119;-75
2021/12/28 21:01:35;;;;;;;6.93;1.40;;;12.30;75.70;;;;;;2347353;53;21815;-76
2021/12/28 21:04:02;;;;;;;8.63;1.40;;;12.30;75.70;;;;;;2361686;53;20966;-77
2021/12/28 21:06:28;;;;;;;9.45;1.60;;;12.30;75.90;;;;;;2355190;53;20945;-78
2021/12/28 21:08:55;;;;;;;9.75;1.45;;;12.30;75.70;;;;;;2322625;54;20927;-78
2021/12/28 21:11:22;;;;;;;9.18;2.03;;;12.40;75.90;;;;;;2357697;52;20963;-76
2021/12/28 21:13:50;;;;;;;11.45;1.98;;;12.40;75.70;;;;;;2455400;52;21011;-77
2021/12/28 21:16:18;;;;;;;11.25;1.95;;;12.40;75.70;;;;;;2369891;53;21501;-76
2021/12/28 21:18:44;;;;;;;9.25;1.58;;;12.40;75.70;;;;;;2405239;53;20947;-75
2021/12/28 21:21:11;;;;;;;10.93;1.60;;;12.50;76.00;;;;;;2409855;52;20980;-78
2021/12/28 21:23:38;;;;;;;7.28;1.40;;;12.40;75.70;;;;;;2348049;53;20938;-75
2021/12/28 21:26:04;;;;;;;8.73;1.62;;;12.40;75.60;;;;;;2355981;53;20959;-81
2021/12/28 21:28:31;;;;;;;8.95;1.90;;;12.50;75.60;;;;;;2393883;53;20907;-78
2021/12/28 21:30:59;;;;;;;7.68;1.70;;;12.50;75.70;;;;;;2388812;52;20930;-75
2021/12/28 21:33:25;;;;;;;9.85;2.17;;;12.50;75.60;;;;;;2366305;52;21057;-79
2021/12/28 21:35:52;;;;;;;5.30;1.50;;;12.50;75.50;;;;;;2361739;53;21128;-79
2021/12/28 21:38:19;;;;;;;7.47;1.60;;;12.60;75.50;;;;;;2361114;53;22262;-76
2021/12/28 21:40:45;;;;;;;6.37;1.42;;;12.50;75.40;;;;;;2361957;53;21468;-75
2021/12/28 21:43:11;;;;;;;6.55;1.80;;;12.60;75.40;;;;;;2362085;53;20954;-78
2021/12/28 21:45:38;;;;;;;6.97;1.33;;;12.60;75.30;;;;;;2341976;53;20954;-78
2021/12/28 21:48:04;;;;;;;7.05;1.50;;;12.60;75.40;;;;;;2388613;52;20969;-77
2021/12/28 21:50:31;;;;;;;9.07;1.70;;;12.60;75.30;;;;;;2353701;53;21084;-79
2021/12/28 21:53:00;;;;;;;7.37;1.70;;;12.60;75.30;;;;;;2364179;52;21077;-76
2021/12/28 21:55:30;;;;;;;7.68;1.62;;;12.60;75.40;;;;;;2363435;53;20957;-81
2021/12/28 21:57:57;;;;;;;10.27;1.80;;;12.60;75.30;;;;;;2414765;52;21581;-76
2021/12/28 22:00:26;;;;;;;9.82;1.67;;;12.70;75.20;;;;;;2361835;53;21482;-78
2021/12/28 22:02:52;;;;;;;10.15;1.48;;;12.70;75.20;;;;;;2501429;52;22347;-78
2021/12/28 22:05:19;;;;;;;7.72;1.70;;;12.70;75.20;;;;;;2360524;53;21038;-77
2021/12/28 22:07:46;;;;;;;9.10;1.77;;;12.70;75.10;;;;;;2361664;53;21562;-77
2021/12/28 22:10:12;;;;;;;7.15;1.65;;;12.70;75.20;;;;;;2360053;53;21470;-79
2021/12/28 22:12:39;;;;;;;9.05;1.80;;;12.80;75.20;;;;;;2365933;53;21418;-79
2021/12/28 22:15:06;;;;;;;12.13;1.75;;;12.70;75.10;;;;;;2400467;52;20939;-77
2021/12/28 22:17:32;;;;;;;8.43;1.70;;;12.80;75.60;;;;;;2361233;53;20977;-78
2021/12/28 22:20:00;;;;;;;5.65;1.70;;;12.80;75.50;;;;;;2361234;53;20942;-79
2021/12/28 22:22:26;;;;;;;5.95;1.48;;;12.80;75.40;;;;;;2376284;52;21019;-78
2021/12/28 22:24:52;;;;;;;8.18;1.50;;;12.80;75.40;;;;;;2357685;53;20938;-77
2021/12/28 22:27:20;;;;;;;6.22;1.65;;;12.90;75.30;;;;;;2361744;53;21347;-79
2021/12/28 22:29:47;;;;;;;7.93;1.80;;;12.90;75.50;;;;;;2371804;52;21903;-78
2021/12/28 22:32:19;;;;;;;9.13;2.17;;;12.80;75.20;;;;;;2394714;53;20950;-78
2021/12/28 22:34:46;;;;;;;9.13;1.77;;;12.90;75.20;;;;;;2411291;54;21597;-76
2021/12/28 22:37:13;;;;;;;9.95;1.65;;;12.90;75.00;;;;;;2394337;53;21061;-77
2021/12/28 22:39:39;;;;;;;12.18;2.17;;;12.90;75.00;;;;;;2368461;52;20972;-77
2021/12/28 22:42:07;;;;;;;13.98;3.22;;;12.90;75.20;;;;;;2362029;53;20982;-77
2021/12/28 22:44:36;;;;;;;15.68;3.10;;;12.90;75.20;;;;;;2324133;54;21055;-78
2021/12/28 22:47:03;;;;;;;11.93;3.25;;;12.90;75.20;;;;;;2474107;52;21109;-77
2021/12/28 22:49:32;;;;;;;10.77;3.47;;;12.90;75.20;;;;;;2371433;52;21326;-77
2021/12/28 22:52:02;;;;;;;18.70;6.85;;;12.90;75.20;;;;;;2343961;53;21651;-77
2021/12/28 22:54:30;;;;;;;31.23;14.30;;;12.90;74.90;;;;;;2322161;53;21530;-76
2021/12/28 22:56:56;;;;;;;17.30;5.60;;;12.90;75.20;;;;;;2392575;54;21033;-77
2021/12/28 22:59:23;;;;;;;16.67;5.90;;;12.90;75.10;;;;;;2360520;53;20938;-76
2021/12/28 23:01:49;;;;;;;20.08;7.90;;;12.90;75.20;;;;;;2361740;53;21124;-80
2021/12/28 23:04:15;;;;;;;10.68;4.90;;;13.00;75.20;;;;;;2412674;52;20907;-77
2021/12/28 23:06:42;;;;;;;11.00;3.33;;;13.00;75.10;;;;;;2370310;53;20915;-77
2021/12/28 23:09:09;;;;;;;11.90;2.30;;;13.00;75.20;;;;;;2426476;52;20938;-80
2021/12/28 23:11:36;;;;;;;7.45;1.80;;;13.00;75.10;;;;;;2440766;52;20899;-78
2021/12/28 23:14:03;;;;;;;8.00;1.65;;;13.00;75.10;;;;;;2347153;52;20950;-78
2021/12/28 23:16:29;;;;;;;7.50;1.60;;;13.00;75.20;;;;;;2354796;53;21466;-80
2021/12/28 23:18:56;;;;;;;11.77;1.92;;;13.00;75.20;;;;;;2358566;53;20967;-77
2021/12/28 23:21:23;;;;;;;7.78;1.48;;;13.00;75.40;;;;;;2357459;53;21296;-78
2021/12/28 23:23:50;;;;;;;5.25;1.33;;;13.00;75.30;;;;;;2546604;52;21071;-79
2021/12/28 23:26:16;;;;;;;8.65;1.62;;;13.00;75.40;;;;;;2384155;54;20942;-78
2021/12/28 23:28:43;;;;;;;5.40;1.00;;;13.00;75.40;;;;;;2342064;52;20952;-76
2021/12/28 23:31:10;;;;;;;6.95;1.40;;;13.00;75.20;;;;;;2467203;53;21010;-79
2021/12/28 23:33:37;;;;;;;6.97;1.20;;;13.00;75.20;;;;;;2402202;52;20926;-79
2021/12/28 23:36:04;;;;;;;7.95;1.20;;;13.00;75.20;;;;;;2380209;52;20971;-78
2021/12/28 23:38:31;;;;;;;6.45;1.23;;;13.00;75.20;;;;;;2398738;53;21077;-77
2021/12/28 23:40:59;;;;;;;8.32;1.40;;;13.00;75.30;;;;;;2412072;52;21001;-79
2021/12/28 23:43:26;;;;;;;5.95;1.30;;;13.00;75.20;;;;;;2563313;52;20949;-77
2021/12/28 23:45:52;;;;;;;5.12;0.88;;;13.10;75.40;;;;;;2369548;53;21397;-77
2021/12/28 23:48:40;;;;;;;4.43;1.00;;;13.00;75.20;;;;;;2375186;52;20978;-80
2021/12/28 23:51:06;;;;;;;4.85;1.25;;;13.10;75.40;;;;;;2587514;52;20953;-77
2021/12/28 23:53:33;;;;;;;4.32;1.05;;;13.10;75.40;;;;;;2404422;53;20987;-77
2021/12/28 23:55:59;;;;;;;8.07;2.05;;;13.10;75.30;;;;;;2454349;52;21407;-77